KMHR/MHR METAR and TAF weather

Enter ICAO airport designator
Station Type Date Time Source
KMHR METAR 2020/08/10 17:45 UTC NOAA

KMHR 101745Z 14004KT 10SM SKC 28/10 A2986


Station Type Date Time Source
KMHR Decoded METAR 2020/08/10 17:45 UTC NOAA

Sacramento, Sacramento Mather Airport, CA, United States (KMHR) 38-33N 121-18W
Aug 10, 2020 - 01:45 PM EDT / 2020.08.10 1745 UTC
Wind: from the SE (140 degrees) at 5 MPH (4 KT):0
Visibility: 10 mile(s):0
Sky conditions: clear
Temperature: 82 F (28 C)
Dew Point: 50 F (10 C)
Relative Humidity: 32%
Pressure (altimeter): 29.86 in. Hg (1011 hPa)
ob: KMHR 101745Z 14004KT 10SM SKC 28/10 A2986
cycle: 18

Station Type Date Time Source
KMHR TAF 2020/08/10 18:40 UTC NOAA

TAF KMHR 101737Z 1018/1118 19006KT P6SM FEW250
FM110500 15011KT P6SM FEW250

Example: see airport list